Time;durP1;ratioP1;P1;durP2;ratioP2;P2;SDS_P1;SDS_P2;PMS_P1;PMS_P2;Temp;Humidity;BMP_temperature;BMP_pressure;BME280_temperature;BME280_humidity;BME280_pressure;Samples;Min_cycle;Max_cycle;Signal;HPM_P1;HPM_P2
2021/12/18 00:00:35;;;;;;;17.10;12.40;;;;;;;7.36;91.99;103580.25;5116784;28;20742;-76
2021/12/18 00:03:02;;;;;;;22.43;12.20;;;;;;;7.41;92.07;103581.19;5117051;28;20197;-76
2021/12/18 00:05:28;;;;;;;17.17;13.00;;;;;;;7.41;91.67;103574.25;5116991;28;20189;-76
2021/12/18 00:07:55;;;;;;;20.53;12.83;;;;;;;7.49;92.18;103578.72;5117167;28;20209;-76
2021/12/18 00:10:23;;;;;;;15.80;12.50;;;;;;;7.40;92.14;103571.63;5117145;28;20205;-76
2021/12/18 00:12:51;;;;;;;17.00;11.40;;;;;;;7.37;92.41;103564.63;5116596;28;20189;-76
2021/12/18 00:15:20;;;;;;;16.80;12.23;;;;;;;7.38;92.39;103573.31;5116562;28;20189;-76
2021/12/18 00:17:47;;;;;;;22.33;12.80;;;;;;;7.31;92.66;103564.53;5116470;28;20177;-76
2021/12/18 00:20:15;;;;;;;20.23;12.53;;;;;;;7.30;92.76;103567.97;5116248;28;20213;-76
2021/12/18 00:22:43;;;;;;;21.67;12.20;;;;;;;7.31;92.88;103569.72;5115391;28;20177;-76
2021/12/18 00:25:12;;;;;;;10.83;9.83;;;;;;;7.31;92.79;103561.91;5116350;28;20193;-76
2021/12/18 00:27:39;;;;;;;15.47;10.40;;;;;;;7.42;92.25;103564.69;5116224;28;20181;-76
2021/12/18 00:30:07;;;;;;;14.60;10.07;;;;;;;7.37;92.28;103559.41;5116443;28;20577;-76
2021/12/18 00:32:34;;;;;;;15.10;11.70;;;;;;;7.40;92.49;103561.19;5116459;28;20234;-76
2021/12/18 00:35:00;;;;;;;17.17;11.10;;;;;;;7.33;92.57;103560.19;5116187;28;20181;-76
2021/12/18 00:37:27;;;;;;;17.50;11.83;;;;;;;7.35;92.60;103561.09;5116397;28;20198;-76
2021/12/18 00:39:58;;;;;;;17.27;11.53;;;;;;;7.40;92.61;103555.97;5116572;28;20607;-76
2021/12/18 00:42:50;;;;;;;18.83;12.33;;;;;;;7.31;92.96;103555.81;5116580;28;20213;-76
2021/12/18 00:45:15;;;;;;;17.47;11.33;;;;;;;7.35;93.06;103566.31;5115813;28;20200;-76
2021/12/18 00:47:43;;;;;;;16.27;11.27;;;;;;;7.29;92.96;103563.63;5115808;28;20658;-76
2021/12/18 00:50:18;;;;;;;11.07;9.33;;;;;;;7.28;93.02;103556.63;5115770;28;20213;-76
2021/12/18 00:52:46;;;;;;;7.23;6.63;;;;;;;7.37;92.41;103558.53;5115900;28;20169;-76
2021/12/18 00:55:13;;;;;;;8.47;7.73;;;;;;;7.24;92.72;103572.19;5116073;28;20189;-76
2021/12/18 00:57:40;;;;;;;7.20;6.57;;;;;;;7.23;93.11;103576.53;5116511;28;20184;-76
2021/12/18 01:00:09;;;;;;;7.47;6.63;;;;;;;7.21;93.04;103569.50;5115879;28;20205;-76
2021/12/18 01:02:37;;;;;;;7.33;6.83;;;;;;;7.18;93.26;103571.22;5115595;28;20193;-76
2021/12/18 01:05:05;;;;;;;6.53;6.20;;;;;;;7.21;93.24;103569.50;5115572;28;20189;-76
2021/12/18 01:07:32;;;;;;;7.43;6.83;;;;;;;7.20;93.24;103576.47;5115828;28;20185;-76
2021/12/18 01:10:08;;;;;;;6.63;6.23;;;;;;;7.19;93.16;103574.72;5115414;28;20250;-76
2021/12/18 01:12:43;;;;;;;6.73;6.37;;;;;;;7.15;93.13;103578.13;5115744;28;20684;-76
2021/12/18 01:23:25;;;;;;;11.37;6.13;;;;;;;7.17;93.06;103584.22;5099374;28;20674;-76
2021/12/18 01:25:53;;;;;;;5.80;5.60;;;;;;;7.14;93.11;103587.66;5115180;28;20192;-76
2021/12/18 01:28:20;;;;;;;6.93;6.33;;;;;;;7.14;93.14;103587.66;5115012;28;20238;-76
2021/12/18 01:30:47;;;;;;;5.97;5.47;;;;;;;7.16;93.05;103582.47;5115070;28;20555;-76
2021/12/18 01:33:13;;;;;;;5.47;5.37;;;;;;;7.16;93.01;103587.69;5115216;28;20247;-76
2021/12/18 01:35:42;;;;;;;6.00;5.30;;;;;;;7.14;93.15;103581.53;5115499;28;20189;-75
2021/12/18 01:38:12;;;;;;;6.60;6.13;;;;;;;7.06;93.41;103580.53;5115443;28;20181;-75
2021/12/18 01:40:40;;;;;;;6.50;6.00;;;;;;;7.02;93.52;103573.53;5114783;28;20209;-75
2021/12/18 01:53:39;;;;;;;7.47;6.10;;;;;;;7.10;93.54;103566.72;5114934;28;20173;-76
2021/12/18 01:56:06;;;;;;;9.57;8.03;;;;;;;7.23;93.34;103560.03;5115125;28;20193;-76
2021/12/18 01:58:33;;;;;;;9.10;7.60;;;;;;;7.18;93.47;103578.16;5114729;28;20688;-76
2021/12/18 02:01:03;;;;;;;7.93;7.33;;;;;;;7.14;93.59;103578.94;5115076;28;20182;-76
2021/12/18 02:03:31;;;;;;;6.60;6.20;;;;;;;7.13;93.73;103579.78;5114717;28;20188;-76
2021/12/18 02:05:58;;;;;;;7.20;6.50;;;;;;;7.10;93.94;103564.13;5114662;28;20226;-76
2021/12/18 02:08:26;;;;;;;7.20;6.40;;;;;;;7.06;93.91;103564.91;5114204;28;20204;-76
2021/12/18 02:11:09;;;;;;;7.10;6.63;;;;;;;7.08;94.07;103568.44;5114300;28;20658;-76
2021/12/18 02:21:36;;;;;;;6.67;6.17;;;;;;;7.08;94.22;103553.69;5114417;28;20666;-76
2021/12/18 02:24:03;;;;;;;7.73;7.03;;;;;;;7.08;94.40;103547.59;5114147;28;20204;-76
2021/12/18 02:26:29;;;;;;;6.90;6.37;;;;;;;7.11;94.26;103542.41;5096149;28;20193;-76
2021/12/18 02:29:00;;;;;;;8.37;6.10;;;;;;;7.11;94.48;103532.00;5114344;28;20213;-76
2021/12/18 02:31:27;;;;;;;8.20;7.27;;;;;;;7.11;94.52;103519.84;5114313;28;20181;-76
2021/12/18 02:33:54;;;;;;;6.93;6.33;;;;;;;7.11;94.45;103518.97;5113961;28;20242;-76
2021/12/18 02:36:25;;;;;;;9.00;7.03;;;;;;;7.07;94.54;103515.44;5114247;28;20267;-73
2021/12/18 02:41:41;;;;;;;8.83;7.27;;;;;;;7.09;94.65;103524.16;5113882;28;20189;-73
2021/12/18 02:44:11;;;;;;;8.47;7.67;;;;;;;7.08;94.78;103521.53;5113797;28;20627;-73
2021/12/18 02:46:40;;;;;;;7.50;6.83;;;;;;;7.09;94.81;103518.97;5113868;28;20173;-73
2021/12/18 02:49:12;;;;;;;10.40;8.13;;;;;;;7.09;94.76;103518.09;5113811;28;20269;-73
2021/12/18 02:51:39;;;;;;;8.07;7.30;;;;;;;7.06;94.80;103508.47;5114040;28;20187;-73
2021/12/18 02:54:06;;;;;;;7.67;7.17;;;;;;;7.08;94.92;103516.31;5114293;28;20193;-75
2021/12/18 02:56:33;;;;;;;7.23;6.60;;;;;;;7.04;94.86;103519.72;5114271;28;20189;-75
2021/12/18 02:59:05;;;;;;;7.07;6.37;;;;;;;7.02;94.91;103518.81;5113874;28;20208;-75
2021/12/18 03:01:33;;;;;;;7.90;7.10;;;;;;;7.00;95.01;103524.00;5113957;28;20619;-75
2021/12/18 03:04:03;;;;;;;7.50;6.80;;;;;;;7.00;94.96;103525.69;5114202;28;20181;-76
2021/12/18 03:09:27;;;;;;;10.30;7.10;;;;;;;6.91;95.44;103526.41;5113875;28;20227;-76
2021/12/18 03:25:24;;;;;;;8.77;7.67;;;;;;;7.02;95.40;103526.63;5113681;28;20196;-76
2021/12/18 03:27:52;;;;;;;7.73;7.10;;;;;;;7.00;95.54;103524.00;5113757;28;20178;-76
2021/12/18 03:30:20;;;;;;;7.87;7.07;;;;;;;7.01;95.57;103524.88;5113235;28;20236;-76
2021/12/18 03:32:47;;;;;;;11.47;6.57;;;;;;;7.01;95.59;103524.88;5113587;28;20612;-76
2021/12/18 03:35:14;;;;;;;12.27;7.13;;;;;;;7.05;95.50;103524.06;5113872;28;20182;-76
2021/12/18 03:37:42;;;;;;;8.07;7.37;;;;;;;7.06;95.63;103520.59;5113636;28;20580;-76
2021/12/18 03:40:12;;;;;;;8.37;7.20;;;;;;;7.05;95.70;103519.72;5113404;28;20231;-75
2021/12/18 03:42:38;;;;;;;7.60;6.90;;;;;;;7.08;95.67;103511.13;5113859;28;20177;-75
2021/12/18 03:45:07;;;;;;;8.40;7.63;;;;;;;7.11;95.67;103514.63;5113854;28;20623;-75
2021/12/18 03:47:35;;;;;;;9.83;8.50;;;;;;;7.12;95.64;103508.56;5113480;28;20185;-75
2021/12/18 03:50:02;;;;;;;9.83;8.93;;;;;;;7.10;95.78;103512.00;5113052;28;20212;-75
2021/12/18 03:52:29;;;;;;;9.03;8.10;;;;;;;7.09;95.81;103505.06;5113232;28;20189;-75
2021/12/18 03:54:56;;;;;;;8.53;7.70;;;;;;;7.06;95.55;103500.66;5113213;28;20189;-75
2021/12/18 03:57:23;;;;;;;7.20;6.60;;;;;;;7.09;95.73;103502.44;5116365;28;20204;-76
2021/12/18 03:59:49;;;;;;;13.73;8.03;;;;;;;7.12;95.76;103499.88;5116794;28;20216;-76
2021/12/18 04:02:16;;;;;;;10.70;7.20;;;;;;;7.15;95.73;103512.97;5116803;28;20684;-76
2021/12/18 04:04:43;;;;;;;14.77;8.57;;;;;;;7.16;95.56;103512.13;5117106;28;20530;-76
2021/12/18 04:07:10;;;;;;;8.97;7.03;;;;;;;7.16;95.67;103518.22;5116774;28;20196;-76
2021/12/18 04:09:36;;;;;;;8.03;6.57;;;;;;;7.17;95.54;103512.16;5116680;28;20278;-75
2021/12/18 04:12:03;;;;;;;7.40;6.80;;;;;;;7.16;95.71;103505.19;5116645;28;20182;-75
2021/12/18 04:14:30;;;;;;;9.90;7.73;;;;;;;7.18;95.56;103505.22;5116897;28;20572;-75
2021/12/18 04:16:57;;;;;;;9.77;7.63;;;;;;;7.17;95.54;103504.34;5117056;28;20184;-76
2021/12/18 04:19:23;;;;;;;15.57;7.30;;;;;;;7.16;95.50;103510.41;5116620;28;20204;-76
2021/12/18 04:21:50;;;;;;;8.60;7.17;;;;;;;7.15;95.71;103511.25;5116302;28;20208;-76
2021/12/18 04:24:17;;;;;;;9.10;7.20;;;;;;;7.16;95.66;103513.00;5116573;28;20192;-76
2021/12/18 04:26:44;;;;;;;8.33;7.53;;;;;;;7.17;95.83;103506.06;5116897;28;20200;-76
2021/12/18 04:29:10;;;;;;;8.50;7.03;;;;;;;7.17;95.91;103508.66;5116535;28;20217;-76
2021/12/18 04:31:38;;;;;;;8.07;6.83;;;;;;;7.20;95.77;103508.72;5116555;28;20650;-76
2021/12/18 04:34:06;;;;;;;9.30;7.43;;;;;;;7.18;95.81;103513.03;5116778;28;20650;-76
2021/12/18 04:36:33;;;;;;;12.23;7.53;;;;;;;7.20;95.93;103515.66;5116178;28;20547;-76
2021/12/18 04:39:00;;;;;;;12.37;7.43;;;;;;;7.20;95.85;103516.53;5116043;28;20705;-76
2021/12/18 04:41:37;;;;;;;10.33;7.57;;;;;;;7.20;95.90;103515.66;5116325;28;20657;-76
2021/12/18 04:44:04;;;;;;;9.37;8.20;;;;;;;7.20;95.90;103513.91;5098600;28;20534;-76
2021/12/18 04:46:32;;;;;;;11.97;7.53;;;;;;;7.19;96.03;103514.78;5116218;28;20185;-76
2021/12/18 04:48:58;;;;;;;8.60;7.80;;;;;;;7.16;95.99;103519.94;5116310;28;20232;-75
2021/12/18 04:51:25;;;;;;;12.23;7.77;;;;;;;7.18;96.00;103519.13;5116425;28;20200;-75
2021/12/18 04:53:51;;;;;;;13.53;9.63;;;;;;;7.20;95.93;103510.44;5116052;28;20186;-75
2021/12/18 04:56:18;;;;;;;12.73;8.87;;;;;;;7.19;95.93;103514.78;5115765;28;20284;-75
2021/12/18 04:58:44;;;;;;;10.77;8.03;;;;;;;7.19;96.00;103520.00;5115704;28;20212;-75
2021/12/18 05:01:11;;;;;;;14.93;9.23;;;;;;;7.18;96.04;103513.91;5115730;28;20654;-75
2021/12/18 05:03:40;;;;;;;14.17;10.17;;;;;;;7.18;96.09;103518.25;5115917;28;20189;-75
2021/12/18 05:06:06;;;;;;;10.40;7.63;;;;;;;7.20;95.93;103531.28;5115525;28;20196;-75
2021/12/18 05:08:33;;;;;;;19.20;10.70;;;;;;;7.18;96.05;103519.13;5114986;28;20189;-75
2021/12/18 05:10:59;;;;;;;13.43;11.30;;;;;;;7.20;96.15;103513.91;5115415;28;20691;-75
2021/12/18 05:13:26;;;;;;;17.83;10.30;;;;;;;7.19;96.28;103509.56;5115456;28;20540;-75
2021/12/18 05:15:52;;;;;;;17.07;9.23;;;;;;;7.21;96.07;103517.41;5115356;28;20181;-75
2021/12/18 05:18:19;;;;;;;9.83;8.40;;;;;;;7.19;96.12;103520.00;5115378;28;20195;-75
2021/12/18 05:20:45;;;;;;;14.17;9.80;;;;;;;7.21;96.16;103520.00;5115216;28;20221;-75
2021/12/18 05:23:12;;;;;;;16.73;9.23;;;;;;;7.20;96.10;103516.53;5115442;28;20557;-76
2021/12/18 05:25:39;;;;;;;13.70;9.13;;;;;;;7.23;96.00;103518.34;5115215;28;20199;-76
2021/12/18 05:28:05;;;;;;;17.67;9.33;;;;;;;7.21;95.99;103522.63;5115162;28;20188;-76
2021/12/18 05:30:32;;;;;;;14.30;9.27;;;;;;;7.21;96.27;103523.50;5114995;28;20213;-76
2021/12/18 05:32:59;;;;;;;14.97;9.00;;;;;;;7.17;96.09;103514.75;5115068;28;20674;-76
2021/12/18 05:35:25;;;;;;;16.83;9.20;;;;;;;7.17;96.15;103522.56;5115009;28;20206;-76
2021/12/18 05:37:54;;;;;;;11.60;8.00;;;;;;;7.18;96.13;103524.31;5115273;28;20220;-76
2021/12/18 05:40:23;;;;;;;14.13;8.47;;;;;;;7.19;96.30;103527.81;5114847;28;20686;-76
2021/12/18 05:42:52;;;;;;;14.50;9.10;;;;;;;7.19;96.36;103520.00;5096600;28;20196;-76
2021/12/18 05:45:19;;;;;;;14.03;8.53;;;;;;;7.18;96.39;103521.72;5115101;28;20204;-76
2021/12/18 05:47:46;;;;;;;12.47;8.50;;;;;;;7.19;96.41;103535.63;5114770;28;20185;-76
2021/12/18 05:50:16;;;;;;;13.63;8.47;;;;;;;7.21;96.42;103528.69;5114608;28;20692;-76
2021/12/18 05:52:45;;;;;;;16.53;8.70;;;;;;;7.22;96.51;103527.88;5114680;28;20193;-76
2021/12/18 05:55:14;;;;;;;15.60;8.87;;;;;;;7.28;96.21;103525.34;5115233;28;20188;-73
2021/12/18 05:57:43;;;;;;;17.73;9.57;;;;;;;7.19;96.13;103530.41;5114910;28;20181;-76
2021/12/18 06:00:11;;;;;;;16.43;9.73;;;;;;;7.16;96.36;103533.84;5114482;28;20212;-76
2021/12/18 06:02:37;;;;;;;19.60;9.73;;;;;;;7.17;96.34;103525.19;5114481;28;20196;-76
2021/12/18 06:05:05;;;;;;;25.27;10.17;;;;;;;7.19;96.38;103530.41;5114752;28;20205;-76
2021/12/18 06:08:10;;;;;;;17.30;9.00;;;;;;;7.17;96.48;103533.00;5114736;28;20169;-73
2021/12/18 06:10:29;;;;;;;21.80;10.10;;;;;;;7.16;96.50;103536.47;5109691;28;20694;-73
2021/12/18 06:12:57;;;;;;;20.03;9.43;;;;;;;7.18;96.60;103533.88;5114845;28;20180;-75
2021/12/18 06:15:24;;;;;;;20.13;10.20;;;;;;;7.18;96.68;103529.53;5114525;28;20238;-75
2021/12/18 06:17:53;;;;;;;20.87;9.53;;;;;;;7.21;96.67;103517.41;5114208;28;20588;-75
2021/12/18 06:20:19;;;;;;;16.47;9.13;;;;;;;7.23;96.71;103520.94;5113049;28;20201;-73
2021/12/18 06:22:46;;;;;;;15.13;8.80;;;;;;;7.22;96.79;103520.06;5114161;28;20627;-73
2021/12/18 06:25:13;;;;;;;23.07;10.30;;;;;;;7.25;96.73;103520.09;5114082;28;20189;-72
2021/12/18 06:27:39;;;;;;;25.07;12.33;;;;;;;7.31;96.56;103519.34;5114368;28;20186;-72
2021/12/18 06:30:07;;;;;;;24.80;10.90;;;;;;;7.30;96.60;103518.47;5113850;28;20256;-72
2021/12/18 06:32:33;;;;;;;16.77;9.97;;;;;;;7.26;96.53;103514.03;5113988;28;20181;-72
2021/12/18 06:35:00;;;;;;;31.47;12.00;;;;;;;7.27;96.55;103520.13;5113946;28;20197;-72
2021/12/18 06:37:26;;;;;;;30.73;12.37;;;;;;;7.29;96.21;103514.09;5114462;28;20628;-72
2021/12/18 06:39:53;;;;;;;35.83;13.13;;;;;;;7.26;96.51;103514.03;5113821;28;20201;-73
2021/12/18 06:42:35;;;;;;;32.77;11.80;;;;;;;7.24;96.75;103520.09;5114456;28;20174;-72
2021/12/18 06:45:03;;;;;;;20.27;11.33;;;;;;;7.24;96.74;103517.47;5113802;28;20655;-72
2021/12/18 06:47:30;;;;;;;29.63;12.07;;;;;;;7.26;96.84;103514.03;5113805;28;20558;-72
2021/12/18 06:49:56;;;;;;;26.80;11.60;;;;;;;7.24;96.97;103507.94;5113625;28;20232;-72
2021/12/18 06:52:23;;;;;;;27.10;11.80;;;;;;;7.25;96.98;103507.06;5113977;28;20193;-72
2021/12/18 06:54:49;;;;;;;20.80;10.67;;;;;;;7.27;96.99;103509.69;5114019;28;20663;-72
2021/12/18 06:57:22;;;;;;;24.63;11.40;;;;;;;7.26;96.97;103511.44;5113910;28;20272;-72
2021/12/18 06:59:49;;;;;;;20.43;10.30;;;;;;;7.26;97.07;103508.81;5114226;28;20204;-72
2021/12/18 07:02:16;;;;;;;25.80;11.17;;;;;;;7.25;96.96;103512.28;5114282;28;20177;-73
2021/12/18 07:04:43;;;;;;;29.90;12.77;;;;;;;7.29;97.01;103511.50;5113607;28;20188;-73
2021/12/18 07:07:09;;;;;;;29.13;12.03;;;;;;;7.30;97.07;103502.81;5114489;28;20222;-73
2021/12/18 07:09:36;;;;;;;24.10;10.77;;;;;;;7.31;96.87;103519.34;5113563;28;20212;-73
2021/12/18 07:12:02;;;;;;;29.23;11.87;;;;;;;7.31;97.01;103514.13;5113783;28;20177;-73
2021/12/18 07:14:29;;;;;;;24.57;11.60;;;;;;;7.31;97.03;103511.53;5114087;28;20185;-75
2021/12/18 07:16:55;;;;;;;26.10;10.70;;;;;;;7.30;97.02;103510.66;5113526;28;20187;-75
2021/12/18 07:19:22;;;;;;;24.60;11.50;;;;;;;7.30;96.97;103512.38;5113949;28;20567;-75
2021/12/18 07:21:48;;;;;;;26.50;11.03;;;;;;;7.32;96.98;103521.09;5113332;28;20205;-75
2021/12/18 07:24:15;;;;;;;22.23;11.97;;;;;;;7.31;97.10;103520.22;5113460;28;20575;-75
2021/12/18 07:26:41;;;;;;;29.10;12.33;;;;;;;7.32;96.97;103521.09;5113740;28;20208;-73
2021/12/18 07:29:08;;;;;;;25.10;11.37;;;;;;;7.32;97.08;103519.34;5113277;28;20741;-73
2021/12/18 07:31:35;;;;;;;21.07;12.23;;;;;;;7.34;97.10;103530.69;5115011;28;20573;-73
2021/12/18 07:34:02;;;;;;;29.67;12.30;;;;;;;7.33;97.09;103523.72;5117686;28;20173;-73
2021/12/18 07:36:28;;;;;;;24.17;11.80;;;;;;;7.34;97.02;103529.81;5117595;28;20665;-73
2021/12/18 07:38:55;;;;;;;28.40;10.90;;;;;;;7.35;97.02;103534.16;5117456;28;20573;-73
2021/12/18 07:41:21;;;;;;;25.63;11.70;;;;;;;7.33;96.94;103538.47;5117757;28;20238;-73
2021/12/18 07:43:48;;;;;;;23.23;11.83;;;;;;;7.37;96.82;103530.75;5117157;28;20204;-73
2021/12/18 07:46:15;;;;;;;40.73;14.20;;;;;;;7.42;96.41;103521.25;5117087;28;20185;-73
2021/12/18 07:48:41;;;;;;;24.97;10.57;;;;;;;7.33;96.67;103528.06;5117013;28;20188;-73
2021/12/18 07:51:08;;;;;;;18.63;9.53;;;;;;;7.26;96.81;103527.06;5116905;28;20243;-73
2021/12/18 07:53:34;;;;;;;14.57;8.53;;;;;;;7.25;97.00;103527.03;5117227;28;20208;-73
2021/12/18 07:56:03;;;;;;;15.67;8.67;;;;;;;7.27;97.07;103522.72;5116930;28;20682;-73
2021/12/18 07:58:30;;;;;;;18.93;8.47;;;;;;;7.28;97.06;103521.88;5116852;28;20182;-73
2021/12/18 08:00:57;;;;;;;14.83;7.67;;;;;;;7.27;96.94;103525.34;5116868;28;20177;-73
2021/12/18 08:03:24;;;;;;;12.97;7.80;;;;;;;7.25;96.95;103521.84;5117102;28;20583;-73
2021/12/18 08:05:50;;;;;;;13.57;8.00;;;;;;;7.24;97.12;103523.56;5117311;28;20607;-73
2021/12/18 08:08:17;;;;;;;11.43;7.67;;;;;;;7.23;97.24;103527.03;5116711;28;20192;-73
2021/12/18 08:10:44;;;;;;;15.10;6.80;;;;;;;7.24;97.12;103528.78;5116996;28;20213;-73
2021/12/18 08:13:10;;;;;;;15.97;8.40;;;;;;;7.24;97.21;103528.78;5132486;27;20217;-73
2021/12/18 08:15:37;;;;;;;17.17;8.73;;;;;;;7.24;97.04;103533.09;5116875;28;20250;-73
2021/12/18 08:18:06;;;;;;;14.63;8.47;;;;;;;7.24;96.95;103526.16;5116552;28;20193;-73
2021/12/18 08:20:37;;;;;;;15.63;7.80;;;;;;;7.22;97.18;103534.81;5116459;28;20212;-73
2021/12/18 08:23:04;;;;;;;16.60;8.03;;;;;;;7.18;96.98;103533.88;5116519;28;20184;-73
2021/12/18 08:25:31;;;;;;;13.37;7.50;;;;;;;7.14;97.10;103532.03;5116969;28;20185;-73
2021/12/18 08:28:00;;;;;;;12.50;6.27;;;;;;;7.22;97.06;103527.88;5116371;28;20247;-73
2021/12/18 08:30:28;;;;;;;7.80;5.83;;;;;;;7.14;96.92;103522.53;5116160;28;20220;-73
2021/12/18 08:32:56;;;;;;;9.67;5.90;;;;;;;7.13;96.87;103530.28;5116905;28;20185;-73
2021/12/18 08:35:25;;;;;;;8.10;5.63;;;;;;;7.09;97.13;103525.91;5116469;28;20249;-75
2021/12/18 08:37:52;;;;;;;9.13;6.03;;;;;;;7.08;97.22;103531.97;5116152;28;20578;-73
2021/12/18 08:40:19;;;;;;;5.07;4.87;;;;;;;7.08;97.08;103530.22;5116171;28;20193;-72
2021/12/18 08:42:46;;;;;;;5.87;5.67;;;;;;;7.07;97.10;103523.28;5115081;28;20192;-72
2021/12/18 08:45:13;;;;;;;5.27;5.07;;;;;;;7.07;97.00;103535.38;5116032;28;20185;-72
2021/12/18 08:47:40;;;;;;;6.27;4.57;;;;;;;7.05;97.10;103534.50;5115966;28;20196;-75
2021/12/18 08:50:10;;;;;;;5.20;5.00;;;;;;;7.06;97.17;103536.25;5115741;28;20216;-76
2021/12/18 08:52:37;;;;;;;5.23;5.00;;;;;;;7.06;97.18;103531.03;5115869;28;20189;-76
2021/12/18 08:55:04;;;;;;;5.07;4.60;;;;;;;7.07;97.04;103535.38;5115907;28;20180;-73
2021/12/18 08:57:31;;;;;;;4.70;4.37;;;;;;;7.07;97.14;103535.38;5116341;28;20578;-73
2021/12/18 08:59:58;;;;;;;4.70;4.30;;;;;;;7.07;97.03;103528.47;5115643;28;20212;-73
2021/12/18 09:02:24;;;;;;;3.60;3.50;;;;;;;7.09;97.02;103531.09;5115703;28;20242;-73
2021/12/18 09:04:51;;;;;;;4.70;4.37;;;;;;;7.09;97.24;103528.50;5116167;28;20181;-73
2021/12/18 09:07:18;;;;;;;4.30;4.10;;;;;;;7.11;97.34;103532.88;5115558;28;20189;-73
2021/12/18 09:09:44;;;;;;;4.13;3.90;;;;;;;7.11;97.27;103532.88;5115679;28;20216;-73
2021/12/18 09:12:11;;;;;;;4.07;3.87;;;;;;;7.12;97.26;103531.16;5115456;28;20246;-73
2021/12/18 09:14:39;;;;;;;4.60;3.93;;;;;;;7.12;97.40;103531.16;5115957;28;20214;-73
2021/12/18 09:17:07;;;;;;;5.70;3.00;;;;;;;7.14;97.18;103530.34;5116018;28;20189;-73
2021/12/18 09:19:33;;;;;;;9.30;3.63;;;;;;;7.16;97.25;103525.16;5115258;28;20200;-73
2021/12/18 09:22:01;;;;;;;3.70;3.43;;;;;;;7.28;97.03;103527.09;5115219;28;20200;-73
2021/12/18 09:24:27;;;;;;;4.40;4.00;;;;;;;7.22;96.90;103522.66;5115244;28;20174;-73
2021/12/18 09:26:54;;;;;;;6.20;3.53;;;;;;;7.21;96.84;103533.91;5115217;28;20181;-73
2021/12/18 09:29:20;;;;;;;3.60;3.30;;;;;;;7.24;96.65;103527.91;5115028;28;20198;-73
2021/12/18 09:31:47;;;;;;;3.20;3.10;;;;;;;7.18;96.79;103532.13;5115067;28;20197;-73
2021/12/18 09:34:14;;;;;;;4.07;3.77;;;;;;;7.27;96.60;103541.84;5115289;28;20204;-73
2021/12/18 09:36:40;;;;;;;3.77;3.57;;;;;;;7.24;96.52;103527.91;5114989;28;20185;-73
2021/12/18 09:39:07;;;;;;;3.60;3.30;;;;;;;7.26;96.43;103531.41;5114904;28;20205;-73
2021/12/18 09:41:34;;;;;;;3.97;3.77;;;;;;;7.23;96.38;103527.03;5114930;28;20181;-73
2021/12/18 09:44:00;;;;;;;4.03;3.77;;;;;;;7.25;96.35;103529.66;5114874;28;20185;-73
2021/12/18 09:46:30;;;;;;;3.70;3.50;;;;;;;7.26;96.35;103532.28;5114801;28;20190;-73
2021/12/18 09:48:58;;;;;;;3.80;3.57;;;;;;;7.26;96.41;103527.06;5115569;28;20208;-73
2021/12/18 09:51:27;;;;;;;3.87;3.53;;;;;;;7.28;96.53;103530.56;5114630;28;20212;-74
2021/12/18 09:53:55;;;;;;;3.03;3.03;;;;;;;7.28;96.39;103520.13;5114361;28;20272;-73
2021/12/18 09:56:24;;;;;;;3.60;3.40;;;;;;;7.32;96.41;103526.31;5114529;28;20230;-73
2021/12/18 09:58:51;;;;;;;4.03;3.83;;;;;;;7.31;96.45;103521.94;5115431;28;20567;-73
2021/12/18 10:01:17;;;;;;;4.13;3.83;;;;;;;7.38;96.19;103521.19;5114723;28;20654;-73
2021/12/18 10:03:58;;;;;;;3.93;3.93;;;;;;;7.36;96.27;103518.56;5114512;28;20188;-73
2021/12/18 10:06:34;;;;;;;4.23;4.10;;;;;;;7.33;95.82;103515.91;5115198;28;20207;-73
2021/12/18 10:09:04;;;;;;;4.67;4.47;;;;;;;7.30;95.96;103515.84;5114789;28;20226;-73
2021/12/18 10:11:31;;;;;;;4.10;3.90;;;;;;;7.20;95.81;103515.66;5114748;28;20220;-73
2021/12/18 10:14:03;;;;;;;3.67;3.50;;;;;;;7.21;95.90;103512.19;5114552;28;20211;-73
2021/12/18 10:16:30;;;;;;;4.53;4.13;;;;;;;7.23;96.07;103511.38;5114641;28;20169;-75
2021/12/18 10:18:58;;;;;;;4.23;3.97;;;;;;;7.26;95.99;103506.22;5114153;28;20208;-75
2021/12/18 10:21:28;;;;;;;5.13;4.83;;;;;;;7.27;95.91;103507.97;5113920;28;20193;-73
2021/12/18 10:23:56;;;;;;;4.80;4.40;;;;;;;7.27;95.99;103504.47;5095833;28;20193;-72
2021/12/18 10:26:36;;;;;;;6.47;5.63;;;;;;;7.27;95.97;103497.53;5114432;28;20176;-76
2021/12/18 10:29:23;;;;;;;5.73;5.30;;;;;;;7.36;95.84;103495.13;5114515;28;20216;-76
2021/12/18 10:31:50;;;;;;;6.80;6.20;;;;;;;7.32;95.62;103493.28;5114506;28;20193;-75
2021/12/18 10:34:26;;;;;;;9.90;6.33;;;;;;;7.25;95.91;103491.44;5114244;28;20647;-75
2021/12/18 10:37:13;;;;;;;6.80;6.27;;;;;;;7.28;95.53;103491.47;5113948;28;20255;-75
2021/12/18 10:40:07;;;;;;;11.53;5.83;;;;;;;7.22;95.69;103499.22;5114304;28;20283;-75
2021/12/18 10:42:44;;;;;;;6.03;5.43;;;;;;;7.16;95.37;103499.09;5114428;28;20189;-72
2021/12/18 10:45:20;;;;;;;10.70;6.00;;;;;;;7.15;95.60;103494.75;5114177;28;20647;-75
2021/12/18 10:47:55;;;;;;;6.63;5.30;;;;;;;7.07;95.25;103497.22;5114355;28;20218;-73
2021/12/18 10:50:30;;;;;;;10.53;4.73;;;;;;;7.01;95.59;103494.50;5113716;28;20215;-73
2021/12/18 10:53:10;;;;;;;4.70;4.27;;;;;;;6.92;95.55;103494.31;5114433;28;20180;-72
2021/12/18 10:55:50;;;;;;;12.87;4.97;;;;;;;6.89;95.91;103484.72;5114328;28;20642;-75
2021/12/18 10:58:24;;;;;;;7.73;5.37;;;;;;;6.93;95.49;103495.19;5114274;28;20233;-72
2021/12/18 11:01:06;;;;;;;6.20;4.67;;;;;;;6.87;95.83;103493.38;5114300;28;20169;-73
2021/12/18 11:03:35;;;;;;;5.40;4.50;;;;;;;6.84;95.88;103486.34;5113631;28;20230;-72
2021/12/18 11:06:07;;;;;;;14.53;5.73;;;;;;;6.85;95.74;103487.22;5115425;28;20181;-72
2021/12/18 11:08:37;;;;;;;12.10;5.77;;;;;;;6.86;95.78;103486.41;5118608;28;20192;-72
2021/12/18 11:13:51;;;;;;;8.60;4.50;;;;;;;6.86;96.07;103476.00;5118267;28;20173;-75
2021/12/18 11:16:19;;;;;;;8.90;6.00;;;;;;;6.99;95.84;103474.47;5117844;28;20635;-73
2021/12/18 11:18:48;;;;;;;10.47;5.40;;;;;;;6.90;95.76;103468.25;5117603;28;20205;-73
2021/12/18 11:21:14;;;;;;;6.83;4.73;;;;;;;6.90;96.07;103469.97;5117713;28;20558;-73
2021/12/18 11:23:53;;;;;;;14.33;5.60;;;;;;;6.90;96.21;103463.03;5117618;28;20189;-73
2021/12/18 11:26:24;;;;;;;5.93;5.53;;;;;;;6.87;96.43;103464.72;5118310;28;20530;-73
2021/12/18 11:28:51;;;;;;;11.13;6.87;;;;;;;6.95;96.18;103467.47;5117383;28;20205;-75
2021/12/18 11:31:18;;;;;;;8.13;4.87;;;;;;;6.98;95.99;103462.28;5117959;28;20264;-75
2021/12/18 11:33:45;;;;;;;4.07;3.77;;;;;;;6.97;95.84;103461.41;5117370;28;20189;-75
2021/12/18 11:36:11;;;;;;;4.83;4.43;;;;;;;6.95;95.70;103459.66;5117535;28;20570;-73
2021/12/18 11:38:41;;;;;;;5.30;4.60;;;;;;;6.86;96.08;103461.25;5117490;28;20297;-72
2021/12/18 11:41:14;;;;;;;5.10;4.63;;;;;;;6.77;96.48;103457.56;5117410;28;20570;-75
2021/12/18 11:43:45;;;;;;;4.17;3.97;;;;;;;6.70;97.05;103455.69;5117473;28;20631;-72
2021/12/18 11:46:37;;;;;;;5.70;3.27;;;;;;;6.71;96.84;103447.91;5098868;28;20189;-75
2021/12/18 11:49:06;;;;;;;2.93;2.93;;;;;;;6.72;96.72;103439.28;5117667;28;20682;-75
2021/12/18 11:51:33;;;;;;;2.40;2.30;;;;;;;6.75;96.97;103441.91;5117463;28;20204;-75
2021/12/18 11:54:03;;;;;;;3.10;3.00;;;;;;;6.78;96.77;103441.09;5117305;28;20174;-73
2021/12/18 11:56:48;;;;;;;3.33;3.23;;;;;;;6.79;97.00;103432.47;5117678;28;20676;-75
2021/12/18 11:59:42;;;;;;;3.73;3.17;;;;;;;6.77;97.08;103437.59;5099185;28;20216;-75
2021/12/18 12:02:11;;;;;;;2.57;2.57;;;;;;;6.80;96.93;103437.69;5117432;28;20188;-76
2021/12/18 12:04:57;;;;;;;3.37;3.07;;;;;;;6.68;97.07;103431.38;5117156;28;20233;-73
2021/12/18 12:07:26;;;;;;;3.27;2.80;;;;;;;6.71;97.10;103429.69;5117064;28;20188;-75
2021/12/18 12:11:03;;;;;;;2.60;2.50;;;;;;;6.68;97.17;103431.38;5116879;28;20204;-75
2021/12/18 12:13:09;;;;;;;3.60;3.60;;;;;;;6.71;97.02;103427.06;5111082;28;20225;-73
2021/12/18 12:15:50;;;;;;;4.87;4.00;;;;;;;6.73;97.04;103428.00;5116521;28;20676;-73
2021/12/18 12:18:17;;;;;;;4.30;4.17;;;;;;;6.76;97.10;103424.56;5116433;28;20177;-73
2021/12/18 12:20:50;;;;;;;3.50;3.40;;;;;;;6.73;97.27;103430.59;5116429;28;20629;-75
2021/12/18 12:23:17;;;;;;;3.47;3.37;;;;;;;6.73;97.34;103428.00;5116697;28;20260;-74